createdAt,value
2018-03-26T00:02:11.662Z,31.53
2018-03-26T00:04:43.173Z,28.40
2018-03-26T00:07:13.643Z,28.97
2018-03-26T00:09:44.308Z,29.50
2018-03-26T00:12:15.536Z,28.97
2018-03-26T00:14:46.001Z,29.02
2018-03-26T00:17:16.479Z,30.37
2018-03-26T00:19:47.912Z,27.90
2018-03-26T00:22:19.150Z,28.80
2018-03-26T00:24:49.599Z,28.23
2018-03-26T00:27:20.313Z,27.27
2018-03-26T00:29:51.051Z,28.10
2018-03-26T00:32:22.663Z,28.03
2018-03-26T00:34:53.963Z,28.57
2018-03-26T00:37:24.449Z,30.20
2018-03-26T00:39:54.891Z,28.10
2018-03-26T00:42:25.320Z,29.93
2018-03-26T00:44:55.803Z,28.17
2018-03-26T00:47:26.263Z,25.10
2018-03-26T00:49:58.282Z,26.90
2018-03-26T00:52:28.778Z,25.40
2018-03-26T00:55:00.436Z,23.83
2018-03-26T00:57:32.339Z,24.80
2018-03-26T01:00:03.990Z,26.67
2018-03-26T01:02:34.453Z,26.83
2018-03-26T01:05:05.103Z,25.50
2018-03-26T01:07:35.567Z,21.23
2018-03-26T01:10:06.293Z,21.60
2018-03-26T01:12:38.910Z,21.43
2018-03-26T01:15:10.158Z,19.60
2018-03-26T01:17:41.396Z,19.48
2018-03-26T01:20:13.543Z,18.40
2018-03-26T01:22:44.005Z,19.63
2018-03-26T01:25:14.508Z,18.40
2018-03-26T01:27:45.747Z,17.83
2018-03-26T01:30:16.204Z,19.00
2018-03-26T01:32:46.712Z,18.53
2018-03-26T01:35:18.425Z,16.17
2018-03-26T01:37:48.858Z,17.40
2018-03-26T01:40:20.235Z,16.58
2018-03-26T01:42:53.142Z,18.77
2018-03-26T01:45:24.444Z,17.00
2018-03-26T01:47:55.843Z,16.70
2018-03-26T01:50:27.087Z,15.63
2018-03-26T01:53:00.408Z,15.80
2018-03-26T01:55:31.354Z,16.20
2018-03-26T01:58:02.276Z,18.98
2018-03-26T02:00:32.726Z,19.33
2018-03-26T02:03:03.192Z,22.00
2018-03-26T02:05:34.536Z,21.13
2018-03-26T02:08:05.986Z,20.40
2018-03-26T02:10:36.477Z,20.47
2018-03-26T02:13:07.908Z,20.50
2018-03-26T02:15:39.264Z,21.57
2018-03-26T02:18:09.891Z,21.48
2018-03-26T02:20:40.383Z,20.08
2018-03-26T02:23:12.613Z,20.13
2018-03-26T02:25:43.110Z,21.17
2018-03-26T02:28:14.567Z,19.70
2018-03-26T02:30:45.022Z,22.27
2018-03-26T02:33:15.763Z,21.75
2018-03-26T02:35:47.080Z,21.50
2018-03-26T02:38:18.033Z,22.13
2018-03-26T02:40:48.503Z,21.87
2018-03-26T02:43:20.699Z,22.40
2018-03-26T02:45:51.951Z,22.65
2018-03-26T02:48:22.768Z,21.73
2018-03-26T02:50:53.992Z,20.27
2018-03-26T02:53:25.204Z,21.93
2018-03-26T02:55:56.364Z,19.13
2018-03-26T02:58:26.840Z,19.10
2018-03-26T03:00:58.537Z,19.57
2018-03-26T03:03:29.002Z,18.43
2018-03-26T03:06:00.233Z,19.83
2018-03-26T03:08:30.705Z,22.90
2018-03-26T03:11:01.155Z,24.98
2018-03-26T03:13:31.711Z,25.03
2018-03-26T03:16:02.172Z,26.90
2018-03-26T03:18:36.044Z,27.13
2018-03-26T03:21:07.554Z,26.25
2018-03-26T03:23:40.115Z,25.70
2018-03-26T03:26:10.559Z,28.35
2018-03-26T03:28:41.058Z,28.63
2018-03-26T03:31:11.716Z,26.50
2018-03-26T03:33:42.161Z,29.20
2018-03-26T03:36:12.905Z,24.92
2018-03-26T03:38:43.351Z,25.83
2018-03-26T03:41:14.170Z,25.80
2018-03-26T03:43:44.628Z,24.00
2018-03-26T03:46:16.787Z,24.98
2018-03-26T03:48:48.031Z,23.53
2018-03-26T03:51:18.513Z,24.17
2018-03-26T03:53:48.951Z,24.70
2018-03-26T03:56:19.720Z,25.83
2018-03-26T03:58:52.091Z,26.03
2018-03-26T04:01:22.556Z,25.17
2018-03-26T04:03:53.302Z,21.40
2018-03-26T04:06:24.497Z,19.60
2018-03-26T04:08:55.700Z,21.45
2018-03-26T04:11:26.118Z,18.90
2018-03-26T04:13:56.591Z,17.47
2018-03-26T04:16:27.145Z,18.33
2018-03-26T04:19:00.313Z,18.23
2018-03-26T04:21:31.423Z,18.87
2018-03-26T04:24:02.700Z,18.20
2018-03-26T04:26:33.448Z,16.20
2018-03-26T04:29:05.006Z,15.90
2018-03-26T04:31:36.375Z,16.40
2018-03-26T04:34:06.823Z,16.63
2018-03-26T04:36:37.263Z,15.27
2018-03-26T04:39:07.747Z,15.13
2018-03-26T04:41:38.245Z,16.27
2018-03-26T04:44:09.811Z,17.33
2018-03-26T04:46:42.000Z,16.20
2018-03-26T04:49:12.457Z,14.63
2018-03-26T04:51:42.911Z,16.10
2018-03-26T04:54:13.408Z,16.48
2018-03-26T04:56:43.895Z,15.30
2018-03-26T04:59:15.464Z,15.30
2018-03-26T05:01:46.264Z,15.87
2018-03-26T05:04:16.817Z,15.63
2018-03-26T05:06:48.332Z,14.23
2018-03-26T05:09:18.832Z,14.10
2018-03-26T05:11:49.276Z,14.40
2018-03-26T05:14:19.867Z,14.40
2018-03-26T05:16:50.359Z,14.07
2018-03-26T05:19:24.513Z,14.13
2018-03-26T05:21:55.899Z,13.13
2018-03-26T05:24:27.477Z,12.03
2018-03-26T05:26:58.740Z,11.75
2018-03-26T05:29:30.447Z,13.15
2018-03-26T05:32:00.937Z,11.90
2018-03-26T05:34:31.400Z,13.47
2018-03-26T05:37:01.875Z,12.18
2018-03-26T05:39:33.084Z,11.90
2018-03-26T05:42:03.554Z,12.82
2018-03-26T05:44:34.784Z,11.77
2018-03-26T05:47:05.992Z,13.30
2018-03-26T05:49:37.494Z,13.37
2018-03-26T05:52:08.744Z,13.63
2018-03-26T05:54:39.188Z,13.90
2018-03-26T05:57:09.754Z,12.23
2018-03-26T05:59:40.567Z,12.77
2018-03-26T06:02:11.883Z,12.73
2018-03-26T06:04:42.728Z,13.00
2018-03-26T06:07:13.187Z,17.87
2018-03-26T06:09:43.750Z,20.47
2018-03-26T06:12:14.232Z,21.48
2018-03-26T06:14:44.787Z,21.93
2018-03-26T06:17:15.644Z,22.87
2018-03-26T06:19:46.151Z,22.23
2018-03-26T06:22:16.740Z,17.67
2018-03-26T06:24:48.194Z,20.97
2018-03-26T06:27:19.829Z,21.33
2018-03-26T06:29:52.424Z,20.90
2018-03-26T06:32:23.508Z,22.70
2018-03-26T06:34:55.074Z,23.37
2018-03-26T06:37:40.863Z,22.20
2018-03-26T06:40:11.322Z,22.40
2018-03-26T06:42:42.035Z,23.90
2018-03-26T06:45:13.259Z,22.73
2018-03-26T06:47:43.910Z,21.13
2018-03-26T06:50:14.753Z,22.37
2018-03-26T06:52:46.873Z,21.90
2018-03-26T06:55:17.355Z,20.36
2018-03-26T06:57:47.893Z,18.90
2018-03-26T07:00:18.354Z,17.62
2018-03-26T07:02:49.111Z,16.70
2018-03-26T07:05:20.447Z,16.55
2018-03-26T07:07:51.956Z,17.40
2018-03-26T07:10:24.335Z,16.40
2018-03-26T07:12:55.408Z,16.37
2018-03-26T07:15:26.969Z,17.67
2018-03-26T07:17:57.648Z,15.47
2018-03-26T07:20:28.876Z,14.70
2018-03-26T07:22:59.456Z,13.62
2018-03-26T07:25:30.546Z,13.83
2018-03-26T07:28:01.792Z,14.95
2018-03-26T07:30:32.624Z,12.97
2018-03-26T07:33:03.078Z,13.37
2018-03-26T07:35:39.911Z,11.80
2018-03-26T07:38:10.392Z,12.27
2018-03-26T07:40:40.851Z,10.53
2018-03-26T07:43:11.316Z,11.18
2018-03-26T07:45:43.442Z,11.33
2018-03-26T07:48:14.354Z,12.30
2018-03-26T07:50:44.813Z,12.50
2018-03-26T07:53:15.695Z,12.85
2018-03-26T07:55:47.849Z,14.20
2018-03-26T07:58:18.313Z,13.97
2018-03-26T08:00:49.906Z,14.40
2018-03-26T08:03:20.403Z,15.10
2018-03-26T08:05:51.091Z,14.97
2018-03-26T08:08:21.703Z,14.93
2018-03-26T08:10:52.458Z,15.30
2018-03-26T08:13:22.979Z,15.60
2018-03-26T08:15:53.511Z,15.67
2018-03-26T08:18:24.089Z,16.20
2018-03-26T08:20:54.915Z,18.35
2018-03-26T08:23:25.356Z,17.35
2018-03-26T08:25:56.847Z,17.77
2018-03-26T08:28:28.308Z,18.23
2018-03-26T08:30:58.813Z,19.50
2018-03-26T08:33:30.403Z,17.25
2018-03-26T08:36:02.061Z,17.67
2018-03-26T08:38:33.691Z,17.97
2018-03-26T08:41:04.182Z,18.70
2018-03-26T08:43:34.688Z,17.90
2018-03-26T08:46:05.187Z,18.90
2018-03-26T08:48:36.428Z,16.77
2018-03-26T08:51:06.900Z,18.80
2018-03-26T08:53:37.963Z,19.17
2018-03-26T08:56:09.672Z,17.70
2018-03-26T08:58:40.881Z,18.67
2018-03-26T09:01:11.377Z,17.97
2018-03-26T09:03:43.731Z,17.80
2018-03-26T09:06:14.199Z,18.10
2018-03-26T09:08:44.651Z,17.40
2018-03-26T09:11:15.120Z,18.47
2018-03-26T09:13:48.653Z,16.43
2018-03-26T09:16:19.106Z,17.43
2018-03-26T09:18:49.791Z,17.90
2018-03-26T09:21:20.269Z,18.50
2018-03-26T09:23:50.999Z,17.50
2018-03-26T09:26:21.464Z,17.83
2018-03-26T09:28:51.988Z,17.30
2018-03-26T09:31:23.090Z,16.87
2018-03-26T09:33:54.363Z,18.67
2018-03-26T09:36:26.178Z,17.17
2018-03-26T09:38:56.626Z,17.23
2018-03-26T09:41:27.109Z,17.00
2018-03-26T09:43:57.619Z,17.80
2018-03-26T09:46:29.432Z,18.60
2018-03-26T09:48:59.866Z,18.63
2018-03-26T09:51:30.299Z,19.23
2018-03-26T09:54:00.963Z,21.60
2018-03-26T09:56:31.748Z,21.70
2018-03-26T09:59:04.634Z,23.60
2018-03-26T10:01:35.367Z,24.77
2018-03-26T10:04:05.837Z,22.60
2018-03-26T10:06:37.567Z,22.17
2018-03-26T10:09:09.635Z,20.00
2018-03-26T10:11:40.102Z,20.70
2018-03-26T10:14:10.532Z,20.00
2018-03-26T10:16:41.030Z,20.23
2018-03-26T10:19:12.448Z,18.80
2018-03-26T10:21:42.911Z,20.07
2018-03-26T10:24:14.108Z,18.70
2018-03-26T10:26:44.572Z,18.63
2018-03-26T10:29:15.796Z,17.60
2018-03-26T10:31:46.251Z,16.10
2018-03-26T10:34:17.824Z,16.53
2018-03-26T10:36:48.651Z,16.00
2018-03-26T10:39:20.158Z,15.87
2018-03-26T10:41:50.720Z,16.50
2018-03-26T10:44:22.879Z,17.77
2018-03-26T10:46:53.379Z,17.20
2018-03-26T10:49:24.831Z,18.33
2018-03-26T10:51:56.383Z,18.53
2018-03-26T10:54:42.556Z,19.37
2018-03-26T10:57:29.928Z,18.43
2018-03-26T11:00:01.189Z,19.27
2018-03-26T11:02:32.706Z,19.27
2018-03-26T11:05:04.808Z,16.00
2018-03-26T11:07:36.114Z,16.00
2018-03-26T11:10:06.709Z,16.10
2018-03-26T11:12:37.286Z,18.20
2018-03-26T11:15:07.935Z,19.57
2018-03-26T11:17:40.279Z,19.40
2018-03-26T11:20:13.153Z,21.50
2018-03-26T11:22:43.717Z,20.57
2018-03-26T11:25:14.320Z,19.15
2018-03-26T11:27:44.862Z,17.33
2018-03-26T11:30:16.383Z,17.12
2018-03-26T11:32:47.011Z,17.57
2018-03-26T11:35:17.736Z,16.27
2018-03-26T11:37:48.312Z,15.93
2018-03-26T11:40:18.910Z,14.70
2018-03-26T11:42:49.498Z,15.53
2018-03-26T11:45:20.815Z,16.37
2018-03-26T11:47:51.364Z,17.87
2018-03-26T11:50:22.935Z,16.50
2018-03-26T11:52:54.242Z,15.37
2018-03-26T11:55:24.836Z,18.27
2018-03-26T11:57:55.519Z,17.40
2018-03-26T12:00:26.376Z,18.23
2018-03-26T12:03:00.306Z,16.00
2018-03-26T12:05:30.976Z,15.88
2018-03-26T12:08:01.711Z,17.03
2018-03-26T12:10:32.655Z,17.15
2018-03-26T12:13:03.254Z,18.50
2018-03-26T12:15:34.207Z,16.60
2018-03-26T12:18:05.466Z,16.95
2018-03-26T12:20:46.636Z,17.80
2018-03-26T12:23:27.954Z,16.60
2018-03-26T12:26:00.175Z,17.23
2018-03-26T12:28:41.447Z,17.03
2018-03-26T12:31:12.104Z,17.33
2018-03-26T12:33:53.243Z,17.37
2018-03-26T12:36:23.969Z,17.20
2018-03-26T12:38:54.551Z,18.90
2018-03-26T12:41:26.277Z,19.37
2018-03-26T12:43:58.288Z,17.77
2018-03-26T12:46:39.474Z,18.07
2018-03-26T12:49:11.776Z,19.47
2018-03-26T12:51:52.848Z,18.80
2018-03-26T12:54:23.415Z,21.70
2018-03-26T12:57:05.232Z,20.73
2018-03-26T12:59:36.112Z,21.63
2018-03-26T13:02:17.176Z,20.17
2018-03-26T13:04:47.760Z,20.57
2018-03-26T13:07:18.943Z,20.93
2018-03-26T13:09:50.248Z,20.63
2018-03-26T13:12:21.150Z,20.73
2018-03-26T13:14:54.171Z,21.00
2018-03-26T13:17:25.020Z,20.00
2018-03-26T13:19:55.570Z,18.97
2018-03-26T13:22:26.894Z,19.90
2018-03-26T13:24:57.438Z,18.63
2018-03-26T13:27:28.149Z,20.43
2018-03-26T13:29:58.699Z,19.67
2018-03-26T13:32:29.265Z,20.00
2018-03-26T13:34:59.819Z,20.80
2018-03-26T13:37:30.375Z,20.77
2018-03-26T13:40:01.088Z,19.77
2018-03-26T13:42:31.659Z,18.87
2018-03-26T13:45:02.247Z,22.60
2018-03-26T13:47:32.801Z,20.50
2018-03-26T13:50:05.168Z,21.27
2018-03-26T13:52:35.839Z,20.90
2018-03-26T13:55:07.184Z,21.10
2018-03-26T13:57:38.511Z,23.70
2018-03-26T14:00:10.232Z,21.27
2018-03-26T14:02:41.084Z,21.40
2018-03-26T14:05:11.611Z,21.50
2018-03-26T14:07:42.210Z,20.67
2018-03-26T14:10:23.362Z,22.17
2018-03-26T14:13:05.293Z,21.10
2018-03-26T14:15:48.509Z,20.77
2018-03-26T14:18:19.513Z,19.40
2018-03-26T14:20:51.310Z,19.77
2018-03-26T14:23:21.832Z,20.13
2018-03-26T14:25:53.377Z,19.27
2018-03-26T14:28:24.632Z,20.97
2018-03-26T14:30:55.195Z,19.20
2018-03-26T14:33:25.773Z,20.43
2018-03-26T14:35:57.984Z,22.60
2018-03-26T14:38:28.794Z,21.57
2018-03-26T14:40:59.324Z,19.57
2018-03-26T14:43:30.432Z,20.67
2018-03-26T14:46:01.031Z,20.47
2018-03-26T14:48:31.563Z,20.43
2018-03-26T14:51:02.899Z,22.07
2018-03-26T14:53:33.715Z,22.53
2018-03-26T14:56:04.248Z,22.08
2018-03-26T14:58:34.820Z,21.40
2018-03-26T15:01:05.682Z,22.20
2018-03-26T15:03:36.975Z,20.52
2018-03-26T15:06:07.526Z,21.40
2018-03-26T15:08:38.084Z,24.63
2018-03-26T15:11:10.348Z,23.47
2018-03-26T15:13:41.633Z,23.70
2018-03-26T15:16:12.427Z,24.80
2018-03-26T15:18:43.726Z,24.30
2018-03-26T15:21:14.285Z,25.25
2018-03-26T15:23:45.211Z,25.10
2018-03-26T15:26:15.951Z,24.80
2018-03-26T15:28:46.465Z,25.17
2018-03-26T15:31:16.995Z,24.90
2018-03-26T15:33:47.589Z,24.37
2018-03-26T15:36:18.124Z,22.70
2018-03-26T15:38:49.552Z,25.73
2018-03-26T15:41:22.040Z,24.77
2018-03-26T15:43:52.911Z,24.07
2018-03-26T15:46:24.456Z,24.60
2018-03-26T15:48:54.994Z,25.20
2018-03-26T15:51:25.557Z,26.30
2018-03-26T15:53:56.450Z,25.13
2018-03-26T15:56:26.991Z,24.60
2018-03-26T15:58:58.515Z,24.30
2018-03-26T16:01:29.038Z,23.20
2018-03-26T16:03:59.600Z,22.03
2018-03-26T16:06:30.645Z,22.60
2018-03-26T16:09:01.564Z,24.27
2018-03-26T16:11:32.086Z,25.63
2018-03-26T16:14:02.624Z,23.37
2018-03-26T16:16:33.715Z,23.83
2018-03-26T16:19:04.452Z,24.87
